Time;durP1;ratioP1;P1;durP2;ratioP2;P2;SDS_P1;SDS_P2;PMS_P1;PMS_P2;Temp;Humidity;BMP_temperature;BMP_pressure;BME280_temperature;BME280_humidity;BME280_pressure;Samples;Min_cycle;Max_cycle;Signal;HPM_P1;HPM_P2
2021/05/26 00:02:12;;;;;;;6.40;2.08;;;11.80;99.90;;;;;;5113939;28;20172;-77
2021/05/26 00:04:38;;;;;;;5.50;2.00;;;11.90;99.90;;;;;;5113679;28;20165;-77
2021/05/26 00:31:25;;;;;;;6.22;1.48;;;11.60;99.90;;;;;;5112972;28;20169;-79
2021/05/26 00:33:51;;;;;;;6.18;1.27;;;11.60;99.90;;;;;;5113342;28;20195;-78
2021/05/26 00:36:17;;;;;;;5.35;1.45;;;11.50;99.90;;;;;;5113303;28;20161;-79
2021/05/26 00:38:43;;;;;;;12.77;1.75;;;11.50;99.90;;;;;;5113328;28;20197;-80
2021/05/26 00:41:10;;;;;;;4.32;1.67;;;11.60;99.90;;;;;;5113068;28;20240;-80
2021/05/26 00:43:35;;;;;;;4.13;1.30;;;11.40;99.90;;;;;;5113006;28;20654;-78
2021/05/26 00:46:01;;;;;;;2.88;1.30;;;11.30;99.90;;;;;;5113335;28;20291;-78
2021/05/26 00:48:27;;;;;;;5.93;1.10;;;11.10;99.90;;;;;;5111377;28;20216;-81
2021/05/26 00:50:53;;;;;;;2.25;1.13;;;11.20;99.90;;;;;;5111605;28;20676;-81
2021/05/26 00:53:19;;;;;;;2.53;0.98;;;11.20;99.90;;;;;;5113118;28;20158;-79
2021/05/26 00:55:45;;;;;;;4.22;0.70;;;11.30;99.90;;;;;;5112825;28;20181;-78
2021/05/26 00:58:12;;;;;;;1.48;1.02;;;11.30;99.90;;;;;;5112956;28;20257;-79
2021/05/26 01:00:41;;;;;;;4.93;0.63;;;11.30;99.90;;;;;;5113008;28;20288;-80
2021/05/26 01:03:07;;;;;;;1.13;0.77;;;11.20;99.90;;;;;;5111649;28;20518;-78
2021/05/26 01:05:33;;;;;;;1.83;0.70;;;11.40;99.90;;;;;;5112508;28;20621;-78
2021/05/26 01:08:00;;;;;;;1.60;0.63;;;11.40;99.90;;;;;;5112820;28;20200;-79
2021/05/26 01:10:28;;;;;;;1.00;0.70;;;11.50;99.90;;;;;;5112634;28;20172;-81
2021/05/26 01:12:54;;;;;;;2.50;0.77;;;11.40;99.90;;;;;;5112728;28;20169;-79
2021/05/26 01:15:22;;;;;;;1.02;0.60;;;11.30;99.90;;;;;;5112671;28;20221;-81
2021/05/26 01:17:49;;;;;;;1.05;0.60;;;11.40;99.90;;;;;;5112725;28;20172;-81
2021/05/26 01:20:27;;;;;;;4.88;0.90;;;11.40;99.90;;;;;;5112290;28;20162;-78
2021/05/26 01:22:54;;;;;;;1.10;0.60;;;11.40;99.90;;;;;;5112824;28;20252;-83
2021/05/26 01:25:20;;;;;;;5.38;0.70;;;11.40;99.90;;;;;;5112766;28;20202;-80
2021/05/26 01:27:47;;;;;;;3.80;0.93;;;11.30;99.90;;;;;;5112536;28;20169;-80
2021/05/26 01:30:13;;;;;;;4.22;0.70;;;11.30;99.90;;;;;;5112198;28;20691;-79
2021/05/26 01:32:57;;;;;;;1.25;0.68;;;11.40;99.90;;;;;;5110914;28;20190;-79
2021/05/26 01:35:22;;;;;;;4.18;1.25;;;11.30;99.90;;;;;;5112699;28;20173;-80
2021/05/26 01:37:48;;;;;;;2.83;0.70;;;11.10;99.90;;;;;;5112502;28;20685;-80
2021/05/26 01:40:17;;;;;;;1.80;0.70;;;11.10;99.90;;;;;;5112958;28;20169;-82
2021/05/26 01:42:46;;;;;;;0.85;0.70;;;11.10;99.90;;;;;;5111363;28;20169;-82
2021/05/26 01:45:15;;;;;;;3.35;0.70;;;11.10;99.90;;;;;;5112674;28;20213;-80
2021/05/26 01:47:41;;;;;;;2.35;1.00;;;11.30;99.90;;;;;;5113371;28;20171;-81
2021/05/26 01:50:19;;;;;;;4.40;1.10;;;11.40;99.90;;;;;;5112984;28;20181;-79
2021/05/26 01:52:46;;;;;;;2.25;1.27;;;11.60;99.90;;;;;;5114494;28;20184;-80
2021/05/26 01:55:13;;;;;;;1.98;1.30;;;11.50;99.90;;;;;;5117007;28;20161;-83
2021/05/26 01:57:41;;;;;;;1.23;1.13;;;11.50;99.90;;;;;;5116314;28;20177;-79
2021/05/26 02:00:07;;;;;;;4.80;1.30;;;11.60;99.90;;;;;;5116141;28;20556;-79
2021/05/26 02:02:33;;;;;;;2.30;1.33;;;11.60;99.90;;;;;;5116292;28;20165;-78
2021/05/26 02:04:58;;;;;;;1.23;1.08;;;11.70;99.90;;;;;;5114740;28;20195;-78
2021/05/26 02:07:24;;;;;;;3.22;1.50;;;11.50;99.90;;;;;;5116457;28;20169;-78
2021/05/26 02:09:49;;;;;;;4.72;1.50;;;11.50;99.90;;;;;;5117094;28;20193;-78
2021/05/26 02:12:21;;;;;;;1.33;1.10;;;11.30;99.90;;;;;;5124008;28;20169;-80
2021/05/26 02:14:55;;;;;;;1.80;1.20;;;11.30;99.90;;;;;;5138009;28;20240;-77
2021/05/26 02:17:22;;;;;;;2.88;1.27;;;11.50;99.90;;;;;;5135946;28;20195;-79
2021/05/26 02:19:49;;;;;;;4.03;1.23;;;11.50;99.90;;;;;;5137723;28;20181;-78
2021/05/26 02:22:15;;;;;;;4.05;1.10;;;11.50;99.90;;;;;;5117366;28;20167;-78
2021/05/26 02:24:41;;;;;;;1.38;1.27;;;11.50;99.90;;;;;;5114523;28;20879;-79
2021/05/26 02:27:07;;;;;;;3.40;1.08;;;11.50;99.90;;;;;;5115659;28;20204;-79
2021/05/26 02:29:33;;;;;;;2.53;1.17;;;11.50;99.90;;;;;;5115839;28;20196;-78
2021/05/26 02:31:59;;;;;;;4.95;1.45;;;11.40;99.90;;;;;;5115451;28;20520;-78
2021/05/26 02:34:25;;;;;;;3.45;1.10;;;11.50;99.90;;;;;;5113926;28;20164;-79
2021/05/26 02:36:50;;;;;;;1.92;1.10;;;11.30;99.90;;;;;;5115237;28;20165;-78
2021/05/26 02:39:16;;;;;;;2.83;0.70;;;11.40;99.90;;;;;;5115750;28;20193;-78
2021/05/26 02:41:43;;;;;;;3.35;1.48;;;11.40;99.90;;;;;;5115681;28;20164;-78
2021/05/26 02:44:08;;;;;;;4.07;1.20;;;11.30;99.90;;;;;;5115450;28;20169;-79
2021/05/26 02:46:34;;;;;;;1.88;1.10;;;11.40;99.90;;;;;;5115298;28;20292;-80
2021/05/26 02:49:00;;;;;;;3.85;1.02;;;11.40;99.90;;;;;;5115204;28;20187;-79
2021/05/26 02:51:26;;;;;;;1.33;0.98;;;11.40;99.90;;;;;;5115059;28;20515;-79
2021/05/26 02:53:52;;;;;;;9.32;1.55;;;11.20;99.90;;;;;;5113773;28;20165;-78
2021/05/26 02:56:18;;;;;;;2.75;1.52;;;11.30;99.90;;;;;;5113908;28;20259;-78
2021/05/26 02:58:43;;;;;;;2.42;1.50;;;11.30;99.90;;;;;;5115129;28;20195;-79
2021/05/26 03:01:09;;;;;;;4.13;1.30;;;11.00;99.90;;;;;;5114732;28;20169;-79
2021/05/26 03:03:35;;;;;;;3.53;1.38;;;11.10;99.90;;;;;;5114994;28;20197;-79
2021/05/26 03:06:01;;;;;;;2.45;1.25;;;11.00;99.90;;;;;;5114767;28;20224;-82
2021/05/26 03:08:26;;;;;;;10.13;2.08;;;11.00;99.90;;;;;;5114719;28;20177;-79
2021/05/26 03:10:57;;;;;;;3.20;1.90;;;11.20;99.90;;;;;;5114881;28;20177;-81
2021/05/26 03:13:25;;;;;;;4.63;2.03;;;11.00;99.90;;;;;;5114345;28;20168;-79
2021/05/26 03:15:52;;;;;;;7.88;1.52;;;11.00;99.90;;;;;;5114412;28;20169;-79
2021/05/26 03:18:18;;;;;;;4.20;2.10;;;11.20;99.90;;;;;;5114280;28;20177;-79
2021/05/26 03:20:44;;;;;;;3.58;1.80;;;11.00;99.90;;;;;;5114732;28;20520;-79
2021/05/26 03:23:10;;;;;;;2.17;1.98;;;10.90;99.90;;;;;;5114780;28;20158;-78
2021/05/26 03:25:35;;;;;;;5.30;2.10;;;10.90;99.90;;;;;;5114553;28;20189;-79
2021/05/26 03:28:01;;;;;;;4.60;2.63;;;11.10;99.90;;;;;;5114428;28;20169;-78
2021/05/26 03:30:27;;;;;;;4.32;2.38;;;11.10;99.90;;;;;;5114103;28;20164;-79
2021/05/26 03:32:53;;;;;;;3.85;2.30;;;11.10;99.90;;;;;;5114353;28;20173;-79
2021/05/26 03:35:18;;;;;;;7.47;2.75;;;10.90;99.90;;;;;;5113051;28;20188;-79
2021/05/26 03:37:45;;;;;;;11.05;2.42;;;10.90;99.90;;;;;;5114033;28;20260;-78
2021/05/26 03:40:13;;;;;;;3.53;2.58;;;11.00;99.90;;;;;;5112661;28;20518;-79
2021/05/26 03:42:40;;;;;;;5.57;2.75;;;11.10;99.90;;;;;;5113789;28;20181;-78
2021/05/26 03:45:07;;;;;;;4.60;2.83;;;11.10;99.90;;;;;;5113728;28;20172;-78
2021/05/26 03:47:37;;;;;;;6.78;3.05;;;10.90;99.90;;;;;;5114283;28;20162;-79
2021/05/26 03:50:05;;;;;;;8.68;2.72;;;11.00;99.90;;;;;;5114439;28;20235;-78
2021/05/26 03:52:31;;;;;;;4.65;2.72;;;11.10;99.90;;;;;;5115109;28;20165;-78
2021/05/26 03:54:56;;;;;;;7.47;2.47;;;11.00;99.90;;;;;;5113945;28;20189;-79
2021/05/26 03:57:22;;;;;;;5.95;2.95;;;10.90;99.90;;;;;;5113480;28;20833;-79
2021/05/26 03:59:48;;;;;;;10.52;3.42;;;10.90;99.90;;;;;;5113109;28;20189;-79
2021/05/26 04:02:13;;;;;;;10.00;2.55;;;11.10;99.90;;;;;;5114693;28;20629;-80
2021/05/26 04:04:41;;;;;;;4.68;2.45;;;11.10;99.90;;;;;;5114954;28;20244;-78
2021/05/26 04:07:06;;;;;;;7.88;3.13;;;11.30;99.90;;;;;;5114637;28;20201;-80
2021/05/26 04:09:32;;;;;;;6.80;3.30;;;11.40;99.90;;;;;;5110847;28;20657;-79
2021/05/26 04:11:58;;;;;;;11.52;3.40;;;11.70;99.90;;;;;;5101743;28;20169;-80
2021/05/26 04:14:23;;;;;;;8.38;3.40;;;11.70;99.90;;;;;;5104975;28;20215;-82
2021/05/26 04:16:49;;;;;;;6.32;3.15;;;11.50;99.90;;;;;;5096162;28;20928;-79
2021/05/26 04:19:15;;;;;;;4.78;2.88;;;11.70;99.90;;;;;;5114308;28;20724;-76
2021/05/26 04:21:40;;;;;;;8.50;3.17;;;11.80;99.90;;;;;;5114323;28;20567;-78
2021/05/26 04:24:06;;;;;;;8.25;3.10;;;11.60;99.90;;;;;;5113629;28;20202;-79
2021/05/26 04:26:32;;;;;;;4.70;2.67;;;11.50;99.90;;;;;;5113184;28;20201;-79
2021/05/26 04:28:57;;;;;;;7.22;2.67;;;11.40;99.90;;;;;;5113100;28;20177;-78
2021/05/26 04:31:23;;;;;;;3.85;2.60;;;11.30;99.90;;;;;;5113656;28;20525;-78
2021/05/26 04:33:48;;;;;;;5.15;2.30;;;11.40;99.90;;;;;;5113160;28;20219;-79
2021/05/26 04:36:14;;;;;;;4.43;2.28;;;11.60;99.90;;;;;;5113319;28;20166;-79
2021/05/26 04:38:40;;;;;;;3.85;2.80;;;11.70;99.90;;;;;;5113255;28;20644;-78
2021/05/26 04:41:06;;;;;;;6.55;2.60;;;11.80;99.90;;;;;;5113038;28;20165;-78
2021/05/26 04:43:32;;;;;;;3.72;2.25;;;11.80;99.90;;;;;;5113137;28;20671;-79
2021/05/26 04:46:00;;;;;;;5.47;2.50;;;11.70;99.90;;;;;;5112916;28;20201;-78
2021/05/26 04:48:26;;;;;;;6.65;2.80;;;11.90;99.90;;;;;;5111793;28;20188;-79
2021/05/26 04:50:51;;;;;;;4.38;2.22;;;12.00;99.90;;;;;;5113130;28;20665;-78
2021/05/26 04:53:17;;;;;;;5.20;2.97;;;12.00;99.90;;;;;;5112917;28;20218;-78
2021/05/26 04:55:42;;;;;;;4.53;2.30;;;11.80;99.90;;;;;;5112991;28;20172;-79
2021/05/26 04:58:09;;;;;;;7.53;2.83;;;11.90;99.90;;;;;;5113635;28;20242;-77
2021/05/26 05:00:35;;;;;;;3.95;2.78;;;12.20;99.90;;;;;;5114197;28;20180;-79
2021/05/26 05:03:01;;;;;;;4.43;2.40;;;12.00;99.90;;;;;;5112677;28;20195;-79
2021/05/26 05:05:32;;;;;;;3.03;2.40;;;11.80;99.90;;;;;;5114440;28;20227;-78
2021/05/26 05:07:59;;;;;;;7.93;3.60;;;11.80;99.90;;;;;;5119760;28;20172;-77
2021/05/26 05:10:25;;;;;;;4.82;2.60;;;11.90;99.90;;;;;;5135919;28;20165;-80
2021/05/26 05:12:50;;;;;;;2.95;2.30;;;12.00;99.90;;;;;;5135425;28;20226;-77
2021/05/26 05:15:16;;;;;;;3.65;2.30;;;12.10;99.90;;;;;;5131054;28;20169;-77
2021/05/26 05:17:46;;;;;;;3.95;2.45;;;12.00;99.90;;;;;;5114578;28;20165;-79
2021/05/26 05:20:16;;;;;;;7.70;2.30;;;12.10;99.90;;;;;;5113371;28;20200;-78
2021/05/26 05:22:42;;;;;;;6.28;2.47;;;12.20;99.90;;;;;;5113338;28;20161;-78
2021/05/26 05:25:09;;;;;;;4.05;2.35;;;12.10;99.90;;;;;;5112094;28;20230;-78
2021/05/26 05:27:35;;;;;;;4.65;2.70;;;12.00;99.90;;;;;;5115508;28;20226;-77
2021/05/26 05:30:01;;;;;;;2.67;2.05;;;12.30;99.90;;;;;;5116878;28;20181;-78
2021/05/26 05:32:27;;;;;;;3.78;2.47;;;12.40;99.90;;;;;;5116902;28;20173;-77
2021/05/26 05:34:52;;;;;;;2.55;1.83;;;12.10;99.90;;;;;;5117276;28;20161;-78
2021/05/26 05:37:18;;;;;;;2.53;1.50;;;12.20;99.90;;;;;;5117336;28;20192;-78
2021/05/26 05:39:43;;;;;;;3.67;1.92;;;12.00;99.90;;;;;;5116680;28;20696;-79
2021/05/26 05:42:09;;;;;;;1.95;1.63;;;12.20;99.90;;;;;;5116921;28;20173;-77
2021/05/26 05:44:35;;;;;;;4.63;2.30;;;12.40;99.90;;;;;;5117567;28;20157;-77
2021/05/26 05:47:00;;;;;;;4.43;2.20;;;12.60;99.90;;;;;;5116893;28;20204;-79
2021/05/26 05:49:26;;;;;;;2.97;1.88;;;12.70;99.90;;;;;;5117863;28;20750;-77
2021/05/26 05:51:51;;;;;;;5.25;2.30;;;12.60;99.90;;;;;;5105761;28;20577;-78
2021/05/26 05:54:17;;;;;;;5.88;2.45;;;12.50;99.90;;;;;;5114901;28;20177;-78
2021/05/26 05:56:42;;;;;;;3.72;2.65;;;12.70;99.90;;;;;;5097379;28;20659;-79
2021/05/26 05:59:08;;;;;;;2.05;1.80;;;12.90;99.90;;;;;;5096389;28;20670;-79
2021/05/26 06:01:34;;;;;;;3.25;2.03;;;13.00;99.90;;;;;;5096394;28;20185;-80
2021/05/26 06:03:59;;;;;;;2.85;1.90;;;12.90;99.90;;;;;;5096583;28;20516;-80
2021/05/26 06:06:25;;;;;;;2.65;2.28;;;13.10;99.90;;;;;;5096462;28;20205;-77
2021/05/26 06:08:51;;;;;;;3.17;2.10;;;13.20;99.90;;;;;;5097021;28;20185;-77
2021/05/26 06:11:16;;;;;;;3.85;2.35;;;13.40;99.90;;;;;;5096568;28;20173;-78
2021/05/26 06:13:46;;;;;;;3.22;2.25;;;13.40;99.90;;;;;;5096150;28;20161;-78
2021/05/26 06:16:16;;;;;;;18.48;3.88;;;13.30;99.90;;;;;;5096402;28;20174;-79
2021/05/26 06:18:41;;;;;;;2.30;1.83;;;13.30;99.90;;;;;;5096246;28;20215;-80
2021/05/26 06:21:07;;;;;;;8.25;2.38;;;13.20;99.90;;;;;;5097170;28;20166;-79
2021/05/26 06:23:34;;;;;;;2.75;2.25;;;13.00;99.90;;;;;;5097252;28;20190;-80
2021/05/26 06:26:00;;;;;;;3.05;2.10;;;13.30;99.90;;;;;;5096152;28;20782;-79
2021/05/26 06:28:26;;;;;;;5.03;1.75;;;13.40;99.90;;;;;;5094628;28;20189;-80
2021/05/26 06:30:52;;;;;;;11.88;2.58;;;13.70;99.90;;;;;;5096323;28;20166;-79
2021/05/26 06:33:18;;;;;;;5.57;2.30;;;13.90;99.90;;;;;;5109036;28;20521;-80
2021/05/26 06:35:43;;;;;;;6.88;2.22;;;14.00;99.90;;;;;;5115311;28;20173;-79
2021/05/26 06:38:09;;;;;;;5.43;2.17;;;13.90;99.90;;;;;;5113117;28;20207;-80
2021/05/26 06:40:35;;;;;;;4.32;2.35;;;14.10;99.90;;;;;;5114555;28;20201;-80
2021/05/26 06:43:00;;;;;;;5.40;2.00;;;14.50;99.90;;;;;;5116174;28;20169;-78
2021/05/26 06:45:26;;;;;;;3.63;2.08;;;14.30;99.90;;;;;;5116309;28;20196;-79
2021/05/26 06:47:51;;;;;;;7.35;2.13;;;14.40;99.90;;;;;;5116446;28;20208;-80
2021/05/26 06:50:17;;;;;;;3.50;2.22;;;14.60;99.90;;;;;;5115659;28;20161;-79
2021/05/26 06:52:43;;;;;;;15.02;3.10;;;14.40;99.90;;;;;;5115184;27;20526;-80
2021/05/26 06:55:09;;;;;;;4.07;2.17;;;14.50;99.90;;;;;;5115339;28;20165;-80
2021/05/26 06:57:34;;;;;;;5.78;1.73;;;14.80;99.90;;;;;;5114921;28;20180;-79
2021/05/26 07:00:00;;;;;;;10.48;1.73;;;14.90;99.90;;;;;;5113648;28;20189;-79
2021/05/26 07:02:26;;;;;;;2.90;1.90;;;14.90;99.90;;;;;;5113916;28;20181;-80
2021/05/26 07:04:51;;;;;;;19.08;1.90;;;14.90;99.90;;;;;;5114858;28;20311;-79
2021/05/26 07:07:17;;;;;;;1.60;1.45;;;15.00;99.90;;;;;;5115157;28;20544;-79
2021/05/26 07:09:42;;;;;;;2.65;1.50;;;14.80;99.90;;;;;;5115347;28;20189;-82
2021/05/26 07:12:08;;;;;;;6.88;1.52;;;14.90;99.90;;;;;;5114679;28;20666;-80
2021/05/26 07:14:34;;;;;;;2.35;1.52;;;14.70;99.90;;;;;;5115815;28;20612;-82
2021/05/26 07:16:59;;;;;;;10.35;1.65;;;14.60;99.90;;;;;;5115652;28;20170;-80
2021/05/26 07:19:25;;;;;;;1.40;1.30;;;14.90;99.90;;;;;;5114950;28;20213;-79
2021/05/26 07:21:51;;;;;;;12.07;1.75;;;15.00;99.90;;;;;;5114768;28;20161;-78
2021/05/26 07:24:16;;;;;;;5.60;1.80;;;15.10;99.90;;;;;;5113160;28;20177;-77
2021/05/26 07:26:43;;;;;;;3.80;1.50;;;15.30;99.90;;;;;;5114081;28;20250;-79
2021/05/26 07:29:09;;;;;;;2.05;1.00;;;15.40;99.90;;;;;;5114108;28;20185;-79
2021/05/26 07:31:34;;;;;;;5.15;1.80;;;15.40;99.90;;;;;;5114186;28;20161;-79
2021/05/26 07:34:00;;;;;;;1.88;1.65;;;15.20;99.90;;;;;;5113768;28;20314;-78
2021/05/26 07:36:26;;;;;;;5.10;1.77;;;15.10;99.90;;;;;;5112441;28;20651;-79
2021/05/26 07:38:53;;;;;;;1.85;1.17;;;14.80;99.90;;;;;;5108135;28;20200;-79
2021/05/26 07:41:19;;;;;;;2.83;1.60;;;14.80;99.90;;;;;;5104997;27;20169;-79
2021/05/26 07:43:44;;;;;;;4.90;1.85;;;14.60;99.90;;;;;;5114385;28;20479;-79
2021/05/26 07:46:11;;;;;;;8.32;1.50;;;14.60;99.90;;;;;;5116341;28;20236;-79
2021/05/26 07:48:37;;;;;;;2.92;1.77;;;14.70;99.90;;;;;;5112790;28;20226;-79
2021/05/26 07:51:04;;;;;;;2.53;1.88;;;14.60;99.90;;;;;;5105795;22;20213;-78
2021/05/26 07:53:30;;;;;;;10.15;1.80;;;14.80;99.90;;;;;;5089029;28;20165;-78
2021/05/26 07:55:55;;;;;;;4.38;2.50;;;14.60;99.90;;;;;;5070515;28;20284;-78
2021/05/26 07:58:21;;;;;;;3.38;2.33;;;14.80;99.90;;;;;;5092289;28;20664;-77
2021/05/26 08:00:46;;;;;;;5.25;2.20;;;14.70;99.90;;;;;;5092618;28;20177;-78
2021/05/26 08:03:12;;;;;;;3.78;1.95;;;14.60;99.90;;;;;;5092982;28;20250;-79
2021/05/26 08:05:37;;;;;;;5.10;2.08;;;14.90;99.90;;;;;;5092573;28;20208;-79
2021/05/26 08:08:03;;;;;;;2.33;2.10;;;14.90;99.90;;;;;;5092623;28;20176;-81
2021/05/26 08:10:29;;;;;;;2.88;1.88;;;14.90;99.90;;;;;;5092226;28;20177;-80
2021/05/26 08:12:55;;;;;;;13.70;2.92;;;14.80;99.90;;;;;;5077849;28;20671;-83
2021/05/26 08:15:21;;;;;;;3.40;1.80;;;15.20;99.90;;;;;;5089593;28;20665;-84
2021/05/26 08:17:47;;;;;;;2.60;2.40;;;15.10;99.90;;;;;;5089716;28;20173;-82
2021/05/26 08:20:13;;;;;;;2.13;1.92;;;15.30;99.90;;;;;;5069386;28;20585;-83
2021/05/26 08:22:39;;;;;;;4.13;2.10;;;15.60;99.90;;;;;;5075016;28;20173;-89
2021/05/26 08:25:05;;;;;;;3.13;1.90;;;15.70;99.90;;;;;;5076354;28;20165;-91
2021/05/26 08:27:31;;;;;;;6.35;2.08;;;15.70;99.90;;;;;;5076821;28;20177;-89
2021/05/26 08:30:00;;;;;;;4.75;2.05;;;15.80;99.90;;;;;;5074062;28;20190;-84
2021/05/26 08:32:26;;;;;;;1.88;1.40;;;16.20;99.90;;;;;;5092566;28;20264;-80
2021/05/26 08:34:55;;;;;;;2.13;1.58;;;16.50;99.90;;;;;;5074086;28;20170;-80
2021/05/26 08:37:22;;;;;;;4.97;1.60;;;16.50;99.90;;;;;;5072367;28;20189;-80
2021/05/26 08:39:51;;;;;;;3.88;1.70;;;16.50;99.90;;;;;;5070884;28;20190;-79
2021/05/26 08:42:18;;;;;;;2.17;1.90;;;16.80;99.90;;;;;;5089758;28;20177;-78
2021/05/26 08:44:44;;;;;;;3.25;1.85;;;17.10;99.90;;;;;;5091552;28;20170;-79
2021/05/26 08:47:15;;;;;;;15.98;2.60;;;17.20;99.90;;;;;;5091246;28;20254;-79
2021/05/26 08:49:44;;;;;;;5.80;2.20;;;17.00;99.90;;;;;;5091069;28;20253;-79
2021/05/26 08:52:10;;;;;;;4.15;1.92;;;16.70;99.90;;;;;;5091586;28;20199;-80
2021/05/26 08:54:35;;;;;;;15.82;3.67;;;16.90;99.90;;;;;;5091670;28;20170;-78
2021/05/26 08:57:01;;;;;;;23.10;4.25;;;17.00;99.90;;;;;;5091527;28;20161;-78
2021/05/26 08:59:26;;;;;;;6.38;2.15;;;16.80;99.90;;;;;;5091351;28;20252;-79
2021/05/26 09:01:53;;;;;;;2.75;2.40;;;16.40;99.90;;;;;;5091812;28;20169;-79
2021/05/26 09:04:34;;;;;;;4.65;2.53;;;16.20;99.90;;;;;;5087612;28;20176;-79
2021/05/26 09:07:15;;;;;;;3.85;2.47;;;15.90;99.90;;;;;;5091734;28;20205;-79
2021/05/26 09:10:02;;;;;;;5.00;2.38;;;16.00;99.90;;;;;;5072577;28;20185;-79
2021/05/26 09:12:33;;;;;;;9.07;2.67;;;16.20;99.90;;;;;;5091416;28;20169;-79
2021/05/26 09:15:07;;;;;;;7.65;2.28;;;16.40;99.90;;;;;;5073184;28;20277;-81
2021/05/26 09:17:34;;;;;;;5.95;2.72;;;16.70;99.90;;;;;;5087018;28;20177;-81
2021/05/26 09:20:23;;;;;;;7.72;2.70;;;17.30;99.90;;;;;;5069046;28;20201;-79
2021/05/26 09:23:10;;;;;;;11.27;3.00;;;17.30;99.90;;;;;;5085745;28;20190;-80
2021/05/26 09:25:44;;;;;;;3.75;2.92;;;17.00;99.90;;;;;;5070981;28;20209;-80
2021/05/26 09:28:24;;;;;;;2.40;2.20;;;17.20;99.90;;;;;;5072677;28;20185;-80
2021/05/26 09:30:55;;;;;;;2.55;2.15;;;17.30;99.90;;;;;;5090999;28;20186;-80
2021/05/26 09:33:43;;;;;;;2.70;1.98;;;17.40;99.90;;;;;;5072837;28;20192;-80
2021/05/26 09:36:21;;;;;;;9.52;3.00;;;17.20;99.90;;;;;;5073425;28;20181;-78
2021/05/26 09:38:57;;;;;;;6.97;3.20;;;17.20;99.90;;;;;;5091551;28;20181;-78
2021/05/26 09:41:24;;;;;;;7.95;1.90;;;17.50;99.90;;;;;;5091096;28;20188;-78
2021/05/26 09:43:54;;;;;;;35.58;3.88;;;17.30;99.90;;;;;;5091069;28;20197;-78
2021/05/26 09:46:39;;;;;;;11.35;3.20;;;17.50;99.90;;;;;;5091050;28;20198;-78
2021/05/26 09:49:19;;;;;;;6.50;3.05;;;17.10;99.90;;;;;;5090541;28;20232;-78
2021/05/26 09:51:56;;;;;;;3.15;2.22;;;16.80;99.90;;;;;;5072495;28;20192;-78
2021/05/26 09:54:27;;;;;;;10.13;2.80;;;16.30;99.90;;;;;;5090928;28;20165;-78
2021/05/26 09:57:14;;;;;;;6.63;3.45;;;16.00;99.90;;;;;;5090591;28;20223;-79
2021/05/26 09:59:42;;;;;;;6.32;4.07;;;15.90;99.90;;;;;;5089730;28;20197;-79
2021/05/26 10:02:08;;;;;;;4.57;4.18;;;15.90;99.90;;;;;;5090586;28;20223;-79
2021/05/26 10:04:33;;;;;;;5.82;4.22;;;16.00;99.90;;;;;;5073401;28;20556;-79
2021/05/26 10:07:04;;;;;;;7.82;4.25;;;16.20;99.90;;;;;;5072645;28;20213;-78
2021/05/26 10:09:33;;;;;;;11.18;3.75;;;16.50;99.90;;;;;;5091250;28;20229;-78
2021/05/26 10:12:00;;;;;;;4.53;4.13;;;16.50;99.90;;;;;;5091021;28;20169;-78
2021/05/26 10:14:27;;;;;;;5.53;4.18;;;16.50;99.90;;;;;;5093502;28;20257;-77
2021/05/26 10:16:55;;;;;;;7.40;3.95;;;16.50;99.90;;;;;;5094739;28;20176;-80
2021/05/26 10:19:22;;;;;;;4.93;4.22;;;16.40;99.90;;;;;;5094337;28;20185;-78
2021/05/26 10:21:48;;;;;;;10.98;3.75;;;16.20;99.90;;;;;;5094276;28;20162;-78
2021/05/26 10:24:21;;;;;;;7.68;4.05;;;16.00;99.90;;;;;;5094145;28;20204;-77
2021/05/26 10:26:47;;;;;;;5.20;3.20;;;16.00;99.90;;;;;;5093664;28;20198;-81
2021/05/26 10:29:34;;;;;;;5.85;3.72;;;16.30;99.90;;;;;;5075456;28;20261;-80
2021/05/26 10:32:03;;;;;;;9.60;3.50;;;16.80;99.90;;;;;;5092195;28;20241;-84
2021/05/26 10:34:47;;;;;;;3.72;3.10;;;17.20;99.90;;;;;;5093736;28;20235;-79
2021/05/26 10:37:26;;;;;;;3.45;2.33;;;17.40;99.90;;;;;;5074974;28;20235;-78
2021/05/26 10:39:52;;;;;;;3.63;2.63;;;17.30;99.90;;;;;;5093340;28;20273;-78
2021/05/26 10:42:29;;;;;;;3.20;2.50;;;17.60;99.90;;;;;;5092571;28;20532;-78
2021/05/26 10:44:56;;;;;;;7.10;2.60;;;17.80;99.90;;;;;;5093941;28;20177;-77
2021/05/26 10:47:37;;;;;;;5.88;2.40;;;17.60;99.90;;;;;;5093491;28;20202;-77
2021/05/26 10:50:14;;;;;;;4.38;2.60;;;17.40;99.90;;;;;;5075833;28;20201;-78
2021/05/26 10:52:55;;;;;;;5.07;2.85;;;17.10;99.90;;;;;;5093652;28;20181;-78
2021/05/26 10:55:46;;;;;;;25.98;5.38;;;16.90;99.90;;;;;;5094142;28;20208;-78
2021/05/26 10:58:24;;;;;;;5.65;2.40;;;16.70;99.90;;;;;;5075440;28;20189;-78
2021/05/26 11:00:56;;;;;;;8.73;4.68;;;16.80;99.90;;;;;;5090987;28;20232;-79
2021/05/26 11:03:30;;;;;;;3.08;2.30;;;16.90;99.90;;;;;;5076641;28;20550;-78
2021/05/26 11:06:18;;;;;;;11.65;4.70;;;16.80;99.90;;;;;;5089916;28;20680;-80
2021/05/26 11:08:46;;;;;;;8.23;4.38;;;17.00;99.90;;;;;;5088090;28;20200;-78
2021/05/26 11:11:33;;;;;;;11.23;2.75;;;16.90;99.90;;;;;;5093227;28;20614;-78
2021/05/26 11:14:13;;;;;;;8.13;3.08;;;16.60;99.90;;;;;;5074599;28;20172;-79
2021/05/26 11:16:49;;;;;;;7.30;3.08;;;16.40;99.90;;;;;;5093181;28;20162;-78
2021/05/26 11:19:16;;;;;;;10.80;3.25;;;16.00;99.90;;;;;;5091156;28;20295;-79
2021/05/26 11:21:55;;;;;;;22.58;3.85;;;15.90;99.90;;;;;;5093011;28;20166;-79
2021/05/26 11:24:22;;;;;;;9.13;4.45;;;16.20;99.90;;;;;;5075262;28;20540;-78
2021/05/26 11:26:48;;;;;;;7.68;3.30;;;16.40;99.90;;;;;;5075381;28;20239;-81
2021/05/26 11:29:29;;;;;;;25.38;5.72;;;16.40;99.90;;;;;;5092737;28;20211;-82
2021/05/26 11:32:06;;;;;;;6.25;3.85;;;16.60;99.90;;;;;;5092717;28;20255;-76
2021/05/26 11:34:34;;;;;;;27.35;6.00;;;17.00;99.90;;;;;;5093277;28;20157;-79
2021/05/26 11:36:59;;;;;;;3.95;3.55;;;17.30;99.90;;;;;;5092771;28;20170;-82
2021/05/26 11:39:35;;;;;;;8.30;4.10;;;17.50;99.90;;;;;;5093139;28;20208;-79
2021/05/26 11:42:26;;;;;;;5.97;2.75;;;17.60;99.90;;;;;;5074465;28;20284;-79
2021/05/26 11:45:07;;;;;;;7.55;2.53;;;17.50;99.90;;;;;;5093363;28;20165;-80
2021/05/26 11:47:36;;;;;;;5.63;1.60;;;17.20;99.90;;;;;;5074980;28;20193;-78
2021/05/26 11:50:12;;;;;;;5.07;1.83;;;16.80;99.90;;;;;;5093571;28;20194;-78
2021/05/26 11:52:38;;;;;;;5.57;1.60;;;16.90;99.90;;;;;;5093217;28;20659;-82
2021/05/26 11:55:04;;;;;;;3.28;1.33;;;17.00;99.90;;;;;;5092212;28;20162;-78
2021/05/26 11:57:42;;;;;;;4.13;1.17;;;17.10;99.90;;;;;;5092575;28;20182;-80
2021/05/26 12:00:23;;;;;;;6.90;1.90;;;17.50;99.90;;;;;;5092215;28;20185;-78
2021/05/26 12:03:18;;;;;;;4.32;1.15;;;17.80;99.90;;;;;;5089664;28;20184;-79
2021/05/26 12:05:50;;;;;;;8.70;1.90;;;17.70;99.90;;;;;;5056374;28;20218;-80
2021/05/26 12:08:22;;;;;;;3.17;1.30;;;17.50;99.90;;;;;;5092814;28;20243;-81
2021/05/26 12:11:12;;;;;;;7.90;2.17;;;16.60;99.90;;;;;;5092034;28;20174;-82
2021/05/26 12:13:43;;;;;;;4.15;2.30;;;15.80;99.90;;;;;;5092350;28;20219;-78
2021/05/26 12:16:14;;;;;;;8.43;3.42;;;15.40;99.90;;;;;;5092429;28;20165;-77
2021/05/26 12:18:50;;;;;;;10.10;3.28;;;15.40;99.90;;;;;;5074172;28;20189;-75
2021/05/26 12:21:19;;;;;;;5.93;3.25;;;15.50;99.90;;;;;;5073427;28;20290;-76
2021/05/26 12:23:49;;;;;;;3.33;2.80;;;15.60;99.90;;;;;;5091444;28;20208;-80
2021/05/26 12:26:25;;;;;;;4.32;2.50;;;15.80;99.90;;;;;;5091544;28;20205;-80
2021/05/26 12:29:08;;;;;;;5.35;3.25;;;15.90;99.90;;;;;;5091134;28;20186;-79
2021/05/26 12:31:35;;;;;;;6.70;3.42;;;16.00;99.90;;;;;;5071166;28;20177;-76
2021/05/26 12:34:01;;;;;;;4.22;2.00;;;15.90;99.90;;;;;;5091602;28;20169;-77
2021/05/26 12:36:30;;;;;;;3.50;1.80;;;16.00;99.90;;;;;;5089505;28;20169;-76
2021/05/26 12:39:02;;;;;;;3.72;1.88;;;16.20;99.90;;;;;;5091034;28;20269;-78
2021/05/26 12:41:36;;;;;;;4.18;1.85;;;16.40;99.90;;;;;;5090975;28;20160;-78
2021/05/26 12:44:08;;;;;;;4.90;2.13;;;16.70;99.90;;;;;;5091529;28;20169;-77
2021/05/26 12:46:34;;;;;;;4.03;1.70;;;16.90;99.90;;;;;;5072651;28;20262;-78
2021/05/26 12:49:00;;;;;;;5.22;1.90;;;17.40;99.90;;;;;;5091069;28;20201;-79
2021/05/26 12:51:26;;;;;;;2.10;1.45;;;17.80;99.90;;;;;;5091243;28;20189;-77
2021/05/26 12:53:56;;;;;;;1.27;1.17;;;18.20;99.90;;;;;;5091203;28;20166;-79
2021/05/26 12:56:23;;;;;;;5.03;1.42;;;18.00;99.90;;;;;;5090796;28;20677;-78
2021/05/26 12:58:49;;;;;;;3.10;1.27;;;17.70;99.90;;;;;;5090230;28;20213;-79
2021/05/26 13:01:15;;;;;;;4.18;1.48;;;17.50;99.90;;;;;;5091831;28;20204;-82
2021/05/26 13:03:41;;;;;;;7.22;1.90;;;17.30;99.90;;;;;;5090917;28;20203;-78
2021/05/26 13:06:14;;;;;;;1.52;1.10;;;17.40;99.90;;;;;;5090999;28;20231;-78
2021/05/26 13:08:59;;;;;;;2.95;1.42;;;17.30;99.90;;;;;;5091360;28;20181;-78
2021/05/26 13:11:44;;;;;;;4.05;1.27;;;17.00;99.90;;;;;;5091058;28;20165;-81
2021/05/26 13:14:10;;;;;;;16.63;1.70;;;16.80;99.90;;;;;;5090691;28;20253;-80
2021/05/26 13:16:37;;;;;;;8.45;1.30;;;16.50;99.90;;;;;;5071012;28;20344;-80
2021/05/26 13:19:04;;;;;;;8.43;1.75;;;16.30;99.90;;;;;;5090562;28;20249;-79